Terminal Aerodrome Forecast
Issued by NWS North Platte, NE

Home | Current Version | Previous Version | Graphics & Text | Print | Product List | Glossary On
Versions: 1 2 3 4 5 6 7 8 9 10 11 12 13
000
FTUS43 KLBF 220500
TAFVTN
TAF
KVTN 220520Z 2206/2306 VRB03KT P6SM SCT200
     FM221600 23012KT P6SM SCT100
     FM221800 23012G21KT P6SM SCT100 BKN250
     FM230100 23011KT P6SM BKN250=

USA.gov is the U.S. government's official web portal to all federal, state and local government web resources and services.